Wetterstation Vordersexau
Wetterdaten: Februar 2017
Datum Temp. A. Feuchte A. Luftdruck Regen Wind Richtung Taupunkt Windchill Windben
01.02.2017 3,9 C 80 % 1013,8 hPa 0,5 l/m 0,0 km/h W 0,8 C 3,9 C 0,0 km/h
02.02.2017 8,1 C 78 % 1008,3 hPa 0,5 l/m 0,0 km/h W 4,5 C 8,1 C 0,0 km/h
03.02.2017 9,2 C 75 % 1005,3 hPa 0,5 l/m 6,1 km/h O-SO 4,7 C 7,8 C 3,4 km/h
04.02.2017 6,1 C 78 % 1001,2 hPa 1,0 l/m 11,4 km/h S-SW 2,4 C 2,3 C 6,4 km/h
05.02.2017 3,4 C 84 % 1001,3 hPa 10,4 l/m 0,9 km/h W-NW 0,9 C 3,0 C 0,5 km/h
06.02.2017 4,4 C 82 % 1012,1 hPa 2,6 l/m 0,0 km/h NW 1,7 C 4,4 C 0,0 km/h
07.02.2017 4,4 C 83 % 1014,4 hPa 1,0 l/m 0,2 km/h W 1,7 C 4,4 C 0,1 km/h
08.02.2017 4,3 C 85 % 1016,8 hPa 0,5 l/m 0,1 km/h W-SW 2,0 C 4,3 C 0,0 km/h
09.02.2017 1,9 C 77 % 1019,1 hPa 0,0 l/m 1,5 km/h W-SW -1,9 C 1,5 C 0,9 km/h
10.02.2017 1,2 C 83 % 1016,3 hPa 0,0 l/m 0,0 km/h W-NW -1,3 C 1,2 C 0,0 km/h
11.02.2017 3,2 C 82 % 1015,7 hPa 0,5 l/m 0,0 km/h W-NW 0,4 C 3,2 C 0,0 km/h
12.02.2017 3,5 C 84 % 1019,7 hPa 0,0 l/m 0,5 km/h W 1,0 C 3,3 C 0,3 km/h
13.02.2017 1,9 C 81 % 1022,1 hPa 0,0 l/m 0,0 km/h W -1,1 C 1,9 C 0,0 km/h
14.02.2017 3,0 C 76 % 1025,7 hPa 0,5 l/m 0,2 km/h NW -1,1 C 3,0 C 0,1 km/h
15.02.2017 6,1 C 73 % 1031,1 hPa 0,0 l/m 0,1 km/h NW 1,1 C 6,1 C 0,1 km/h
16.02.2017 8,9 C 72 % 1028,3 hPa 0,0 l/m 0,7 km/h W 3,4 C 8,6 C 0,4 km/h
17.02.2017 6,5 C 83 % 1024,8 hPa 6,7 l/m 0,5 km/h SO 3,8 C 6,5 C 0,3 km/h
18.02.2017 6,2 C 77 % 1023,5 hPa 1,6 l/m 0,0 km/h O-SO 2,4 C 6,2 C 0,0 km/h
19.02.2017 5,3 C 74 % 1021,8 hPa 0,5 l/m 1,8 km/h O-SO 0,6 C 4,9 C 1,0 km/h
20.02.2017 7,2 C 80 % 1021,0 hPa 0,5 l/m 7,8 km/h O-NO 4,0 C 4,8 C 4,3 km/h
21.02.2017 10,1 C 83 % 1017,4 hPa 0,5 l/m 17,7 km/h W-SW 7,4 C 4,7 C 9,8 km/h
22.02.2017 10,1 C 77 % 1014,8 hPa 0,0 l/m 22,9 km/h SW 6,4 C 2,9 C 12,7 km/h
23.02.2017 12,2 C 63 % 1005,8 hPa 0,0 l/m 17,8 km/h W-SW 4,7 C 7,9 C 9,9 km/h
24.02.2017 5,2 C 79 % 1011,6 hPa 6,2 l/m 3,7 km/h O-SO 1,7 C 4,2 C 2,1 km/h
25.02.2017 4,5 C 75 % 1019,1 hPa 0,5 l/m 0,2 km/h O-SO 0,2 C 4,5 C 0,1 km/h
26.02.2017 6,6 C 69 % 1014,7 hPa 0,0 l/m 5,3 km/h O-SO 0,7 C 5,2 C 3,0 km/h
27.02.2017 9,6 C 65 % 1004,7 hPa 0,5 l/m 8,3 km/h O-SO 2,9 C 7,8 C 4,6 km/h
28.02.2017 6,0 C 80 % 997,2 hPa 16,6 l/m 14,6 km/h S-SW 2,8 C 0,9 C 8,1 km/h
Min-Datum 14.02.17 23.02.17 28.02.17 19 Tage 01.02.17 - 14.02.17 16.02.17 01.02.17
Min-Zeit 05:10 15:01 14:01 - 00:10 - 05:10 05:10 00:10
Minimum -3,8 C 35 % 992,3 hPa - 0,0 km/h - -5,8 C -5,1 C 0,0 km/h
Max-Datum 16.02.17 01.02.17 15.02.17 28.02.17 23.02.17 - 02.02.17 16.02.17 23.02.17
Max-Zeit 16:10 14:10 10:10 03:01 17:01 - 11:10 16:10 17:01
Maximum 22,2 C 87 % 1032,2 hPa 16,6 l/m 58,3 km/h
W-SW
- 10,2 C 22,2 C 32,4 km/h
W-SW
Durchschnitt 5,8 C 78 % 1015,3 hPa #51,8 l/m 4,4 km/h W 2,0 C 4,6 C 2,4 km/h

Durchschnitt Minimum Temp.1,3 C
Durchschnitt Maximum Temp.12,9 C
www.sexauwetter.de